Time;durP1;ratioP1;P1;durP2;ratioP2;P2;SDS_P1;SDS_P2;PMS_P1;PMS_P2;Temp;Humidity;BMP_temperature;BMP_pressure;BME280_temperature;BME280_humidity;BME280_pressure;Samples;Min_cycle;Max_cycle;Signal;HPM_P1;HPM_P2
2023/04/18 00:00:17;;;;;;;11.63;10.43;;;15.10;54.60;;;;;;5006215;28;20520;-51
2023/04/18 00:02:44;;;;;;;11.30;10.20;;;15.10;54.70;;;;;;4996897;28;20265;-52
2023/04/18 00:05:11;;;;;;;11.83;10.47;;;15.10;54.80;;;;;;5003141;28;20440;-51
2023/04/18 00:07:37;;;;;;;11.83;10.50;;;15.10;54.70;;;;;;5006153;28;20459;-49
2023/04/18 00:10:04;;;;;;;11.70;10.60;;;15.10;54.70;;;;;;5006125;28;20433;-50
2023/04/18 00:12:30;;;;;;;11.67;10.47;;;15.10;54.70;;;;;;5001061;28;20194;-50
2023/04/18 00:14:57;;;;;;;11.33;10.20;;;15.10;54.60;;;;;;5006973;28;20453;-49
2023/04/18 00:17:25;;;;;;;11.67;9.30;;;15.10;54.50;;;;;;5007258;28;20959;-49
2023/04/18 00:19:51;;;;;;;12.97;11.10;;;15.10;54.60;;;;;;5001069;28;20449;-52
2023/04/18 00:22:21;;;;;;;16.27;9.13;;;15.10;54.80;;;;;;5005585;28;20473;-53
2023/04/18 00:24:48;;;;;;;13.50;8.80;;;15.00;54.70;;;;;;5004846;28;20862;-49
2023/04/18 00:27:13;;;;;;;10.37;9.30;;;14.90;55.10;;;;;;5014207;28;20448;-54
2023/04/18 00:29:39;;;;;;;11.17;9.60;;;14.90;55.10;;;;;;5006639;28;20475;-51
2023/04/18 00:32:05;;;;;;;10.67;9.60;;;14.90;54.90;;;;;;5006934;28;20193;-49
2023/04/18 00:34:31;;;;;;;12.27;10.97;;;15.00;54.90;;;;;;5008556;28;20658;-52
2023/04/18 00:36:56;;;;;;;11.17;9.97;;;15.10;55.00;;;;;;5010192;28;20491;-49
2023/04/18 00:39:22;;;;;;;10.10;9.07;;;15.10;55.00;;;;;;5009210;28;20275;-50
2023/04/18 00:41:47;;;;;;;10.80;9.60;;;15.10;54.80;;;;;;5007556;28;20244;-53
2023/04/18 00:44:13;;;;;;;11.20;10.00;;;15.10;54.70;;;;;;5010934;28;20662;-49
2023/04/18 00:46:38;;;;;;;11.47;10.30;;;15.10;54.60;;;;;;5009612;28;20307;-50
2023/04/18 00:49:05;;;;;;;10.77;9.67;;;15.10;54.80;;;;;;5002968;28;20561;-51
2023/04/18 00:51:32;;;;;;;11.73;10.17;;;15.10;55.00;;;;;;5004342;28;20285;-49
2023/04/18 00:53:58;;;;;;;11.43;9.80;;;15.10;55.30;;;;;;5009581;28;20507;-49
2023/04/18 00:56:24;;;;;;;11.50;10.30;;;15.10;55.40;;;;;;5012256;28;20448;-49
2023/04/18 00:58:50;;;;;;;10.73;9.63;;;15.20;55.60;;;;;;5004053;28;20194;-51
2023/04/18 01:01:16;;;;;;;11.10;10.00;;;15.10;55.60;;;;;;5007731;28;20453;-53
2023/04/18 01:03:42;;;;;;;10.23;9.23;;;15.20;55.70;;;;;;5010553;28;20221;-53
2023/04/18 01:06:08;;;;;;;9.47;8.53;;;15.10;55.60;;;;;;5005654;28;20502;-52
2023/04/18 01:08:35;;;;;;;14.53;10.10;;;15.10;55.60;;;;;;5010366;28;20376;-49
2023/04/18 01:11:00;;;;;;;10.90;9.90;;;15.10;55.60;;;;;;5004908;28;20233;-51
2023/04/18 01:13:26;;;;;;;10.87;9.30;;;15.10;55.70;;;;;;5002541;28;20449;-50
2023/04/18 01:15:53;;;;;;;12.37;9.83;;;15.10;55.60;;;;;;5002979;28;20223;-49
2023/04/18 01:18:19;;;;;;;10.83;9.30;;;15.10;55.60;;;;;;5006754;28;20190;-50
2023/04/18 01:20:50;;;;;;;9.70;8.73;;;15.10;55.50;;;;;;5011406;28;20530;-51
2023/04/18 01:23:17;;;;;;;10.43;9.43;;;15.20;55.50;;;;;;5008426;28;20890;-49
2023/04/18 01:25:43;;;;;;;9.70;8.67;;;15.20;55.40;;;;;;5001559;28;20452;-51
2023/04/18 01:28:09;;;;;;;10.70;9.60;;;15.10;55.30;;;;;;5002743;28;20445;-49
2023/04/18 01:30:35;;;;;;;10.97;9.80;;;15.20;55.40;;;;;;5007433;28;21028;-50
2023/04/18 01:33:03;;;;;;;10.67;9.57;;;15.10;55.20;;;;;;5000165;28;20573;-50
2023/04/18 01:35:29;;;;;;;12.07;9.73;;;15.00;55.30;;;;;;5008559;28;20194;-49
2023/04/18 01:37:54;;;;;;;11.43;10.00;;;15.00;55.20;;;;;;5006753;28;20515;-52
2023/04/18 01:40:20;;;;;;;10.33;9.33;;;15.00;55.20;;;;;;5007433;28;20325;-49
2023/04/18 01:42:46;;;;;;;10.20;8.87;;;15.00;55.20;;;;;;5003744;28;20594;-49
2023/04/18 01:45:12;;;;;;;9.93;8.63;;;15.00;55.40;;;;;;5004464;28;20452;-50
2023/04/18 01:47:38;;;;;;;12.10;8.60;;;15.00;55.40;;;;;;4997905;28;20594;-50
2023/04/18 01:50:04;;;;;;;11.67;8.80;;;15.00;55.50;;;;;;5004308;28;20252;-49
2023/04/18 01:52:30;;;;;;;10.20;9.10;;;15.00;55.60;;;;;;4999978;28;20437;-50
2023/04/18 01:54:56;;;;;;;9.93;8.93;;;15.00;55.60;;;;;;4997110;28;21009;-49
2023/04/18 01:57:21;;;;;;;10.57;9.47;;;15.00;55.60;;;;;;5004973;28;20293;-50
2023/04/18 01:59:47;;;;;;;12.50;10.60;;;15.00;55.60;;;;;;5001779;28;20287;-50
2023/04/18 02:02:13;;;;;;;10.97;9.93;;;14.90;55.50;;;;;;5003177;28;20217;-50
2023/04/18 02:04:38;;;;;;;11.10;9.90;;;14.90;55.60;;;;;;5003134;28;20680;-50
2023/04/18 02:07:04;;;;;;;12.20;10.43;;;14.80;55.70;;;;;;4998740;28;20205;-50
2023/04/18 02:09:30;;;;;;;10.80;9.57;;;14.80;55.70;;;;;;4999459;28;20270;-50
2023/04/18 02:11:58;;;;;;;13.40;10.30;;;14.80;55.80;;;;;;5004244;28;20205;-51
2023/04/18 02:14:25;;;;;;;12.03;9.70;;;14.80;55.80;;;;;;4995746;28;20186;-54
2023/04/18 02:16:51;;;;;;;10.40;9.40;;;14.80;55.80;;;;;;5008990;28;20444;-49
2023/04/18 02:19:16;;;;;;;10.80;9.60;;;14.80;55.90;;;;;;5005350;28;20441;-50
2023/04/18 02:21:43;;;;;;;12.33;9.90;;;14.80;55.90;;;;;;5000491;28;20563;-50
2023/04/18 02:24:09;;;;;;;9.80;8.70;;;14.80;55.90;;;;;;5002965;28;20276;-50
2023/04/18 02:26:34;;;;;;;11.27;10.20;;;14.70;55.90;;;;;;5008773;28;20945;-49
2023/04/18 02:29:00;;;;;;;10.20;9.10;;;14.70;56.00;;;;;;5007532;28;20198;-49
2023/04/18 02:31:25;;;;;;;13.20;11.60;;;14.70;56.10;;;;;;5006973;28;20241;-49
2023/04/18 02:33:51;;;;;;;11.17;9.60;;;14.60;56.00;;;;;;5010266;28;22092;-49
2023/04/18 02:36:16;;;;;;;11.73;10.30;;;14.60;56.00;;;;;;5008860;28;20225;-49
2023/04/18 02:38:43;;;;;;;9.87;8.90;;;14.60;55.90;;;;;;5003825;28;20190;-53
2023/04/18 02:41:13;;;;;;;9.87;8.83;;;14.50;55.90;;;;;;5000154;28;20191;-49
2023/04/18 02:43:39;;;;;;;12.77;10.47;;;14.40;56.00;;;;;;5010277;28;20497;-50
2023/04/18 02:46:05;;;;;;;13.43;10.97;;;14.40;56.10;;;;;;5005899;28;20453;-50
2023/04/18 02:48:30;;;;;;;12.73;10.33;;;14.50;56.20;;;;;;4997798;28;20438;-50
2023/04/18 02:51:06;;;;;;;13.33;12.03;;;14.50;56.10;;;;;;5005807;28;20252;-51
2023/04/18 02:53:32;;;;;;;17.83;11.77;;;14.50;56.10;;;;;;5008209;28;20236;-51
2023/04/18 02:55:58;;;;;;;12.30;10.53;;;14.50;56.00;;;;;;5003042;28;20510;-50
2023/04/18 02:58:23;;;;;;;12.07;10.80;;;14.60;56.00;;;;;;5009302;28;20441;-53
2023/04/18 03:00:52;;;;;;;12.83;10.43;;;14.60;56.00;;;;;;5006256;28;20226;-54
2023/04/18 03:03:17;;;;;;;12.07;10.60;;;14.50;56.00;;;;;;5008405;28;20233;-50
2023/04/18 03:05:43;;;;;;;13.87;10.80;;;14.50;56.10;;;;;;5008700;28;20443;-53
2023/04/18 03:08:08;;;;;;;12.10;10.77;;;14.50;56.00;;;;;;5011200;28;20192;-49
2023/04/18 03:10:34;;;;;;;13.23;11.03;;;14.50;56.20;;;;;;5009161;28;20213;-49
2023/04/18 03:13:00;;;;;;;11.57;10.23;;;14.40;56.10;;;;;;5007349;28;20553;-49
2023/04/18 03:15:26;;;;;;;13.93;12.03;;;14.40;56.20;;;;;;5007700;28;20448;-50
2023/04/18 03:17:52;;;;;;;13.50;10.70;;;14.30;56.20;;;;;;5000361;28;20442;-50
2023/04/18 03:20:18;;;;;;;12.77;10.80;;;14.40;56.40;;;;;;5008296;28;20452;-50
2023/04/18 03:22:43;;;;;;;12.00;10.23;;;14.30;56.40;;;;;;5003519;28;20237;-49
2023/04/18 03:25:09;;;;;;;18.30;12.10;;;14.30;56.40;;;;;;5005317;28;20213;-52
2023/04/18 03:27:35;;;;;;;14.10;11.80;;;14.30;56.40;;;;;;5005749;28;20204;-49
2023/04/18 03:30:01;;;;;;;13.30;11.00;;;14.30;56.30;;;;;;5008301;28;21459;-52
2023/04/18 03:32:27;;;;;;;13.30;11.33;;;14.30;56.50;;;;;;5006948;28;20205;-53
2023/04/18 03:34:52;;;;;;;13.70;11.27;;;14.30;56.70;;;;;;5004685;28;20953;-53
2023/04/18 03:37:18;;;;;;;15.03;11.00;;;14.30;56.60;;;;;;5003555;28;20194;-52
2023/04/18 03:39:43;;;;;;;12.97;10.73;;;14.30;56.70;;;;;;4998744;28;20194;-53
2023/04/18 03:42:09;;;;;;;12.90;10.87;;;14.20;56.80;;;;;;5008906;28;20613;-54
2023/04/18 03:44:34;;;;;;;13.50;11.23;;;14.20;56.90;;;;;;5002375;28;20294;-53
2023/04/18 03:47:00;;;;;;;11.87;10.63;;;14.20;56.80;;;;;;4992822;28;20195;-53
2023/04/18 03:49:26;;;;;;;12.87;11.40;;;14.20;56.70;;;;;;5008385;28;20200;-53
2023/04/18 03:51:51;;;;;;;11.70;10.37;;;14.20;56.80;;;;;;5008986;28;20748;-54
2023/04/18 03:54:17;;;;;;;12.17;9.90;;;14.20;57.00;;;;;;5003393;28;20230;-53
2023/04/18 03:56:43;;;;;;;12.10;10.87;;;14.20;57.00;;;;;;5007628;28;20276;-54
2023/04/18 03:59:09;;;;;;;11.23;10.00;;;14.30;57.00;;;;;;5005120;28;20451;-51
2023/04/18 04:01:35;;;;;;;11.97;10.30;;;14.30;57.00;;;;;;5006859;28;20993;-54
2023/04/18 04:04:02;;;;;;;11.67;10.40;;;14.20;56.90;;;;;;5002814;28;20900;-53
2023/04/18 04:06:28;;;;;;;11.40;10.20;;;14.20;56.90;;;;;;5001701;28;20444;-50
2023/04/18 04:08:53;;;;;;;10.47;9.30;;;14.20;56.80;;;;;;5007090;28;20457;-51
2023/04/18 04:11:19;;;;;;;11.30;10.10;;;14.20;56.90;;;;;;5007442;28;20205;-53
2023/04/18 04:13:45;;;;;;;12.40;8.90;;;14.20;57.00;;;;;;5004955;28;20187;-53
2023/04/18 04:16:10;;;;;;;11.87;10.67;;;14.20;56.70;;;;;;5007501;28;20193;-54
2023/04/18 04:18:36;;;;;;;13.20;9.90;;;14.20;56.90;;;;;;5012259;28;20284;-52
2023/04/18 04:21:02;;;;;;;11.50;9.87;;;14.20;57.00;;;;;;5007020;28;20234;-54
2023/04/18 04:23:27;;;;;;;11.47;10.23;;;14.20;57.00;;;;;;5009441;28;20237;-54
2023/04/18 04:25:54;;;;;;;11.23;9.33;;;14.30;57.00;;;;;;5008913;28;20811;-54
2023/04/18 04:28:23;;;;;;;11.33;9.87;;;14.30;56.90;;;;;;5007256;28;20228;-51
2023/04/18 04:30:52;;;;;;;13.03;9.30;;;14.40;56.50;;;;;;5016339;28;20448;-50
2023/04/18 04:33:18;;;;;;;10.70;9.60;;;14.40;56.40;;;;;;5007018;28;20853;-54
2023/04/18 04:35:48;;;;;;;11.80;10.47;;;14.40;56.40;;;;;;5009403;28;20471;-53
2023/04/18 04:38:14;;;;;;;11.80;10.60;;;14.40;56.30;;;;;;5007209;28;20445;-53
2023/04/18 04:40:40;;;;;;;11.40;10.20;;;14.30;56.20;;;;;;5005260;28;20445;-54
2023/04/18 04:43:06;;;;;;;9.67;8.77;;;14.30;56.50;;;;;;5011450;28;20316;-53
2023/04/18 04:45:32;;;;;;;11.70;9.57;;;14.30;56.60;;;;;;5008024;28;20567;-53
2023/04/18 04:47:58;;;;;;;13.47;9.90;;;14.30;56.60;;;;;;5004376;28;20206;-53
2023/04/18 04:50:24;;;;;;;11.07;9.77;;;14.40;56.70;;;;;;5001719;28;20199;-53
2023/04/18 04:52:49;;;;;;;11.63;10.20;;;14.40;56.50;;;;;;5002437;28;20257;-53
2023/04/18 04:55:16;;;;;;;10.33;9.17;;;14.40;56.30;;;;;;4997619;28;20931;-51
2023/04/18 04:57:42;;;;;;;12.10;10.77;;;14.40;56.20;;;;;;5007512;28;20194;-54
2023/04/18 05:00:08;;;;;;;11.30;10.17;;;14.40;56.20;;;;;;5005872;28;20452;-54
2023/04/18 05:02:34;;;;;;;11.20;10.03;;;14.40;56.30;;;;;;5009038;28;20237;-51
2023/04/18 05:04:59;;;;;;;10.73;9.47;;;14.30;56.30;;;;;;5009713;28;20441;-53
2023/04/18 05:07:25;;;;;;;11.23;9.60;;;14.30;56.50;;;;;;5010191;28;20670;-53
2023/04/18 05:09:52;;;;;;;10.83;9.73;;;14.40;56.80;;;;;;5012573;28;20292;-52
2023/04/18 05:12:17;;;;;;;11.07;10.07;;;14.40;56.70;;;;;;5011480;28;20689;-53
2023/04/18 05:14:43;;;;;;;11.70;10.27;;;14.40;56.60;;;;;;5012121;28;20536;-53
2023/04/18 05:17:09;;;;;;;11.27;10.10;;;14.40;56.60;;;;;;5009927;28;20209;-53
2023/04/18 05:19:34;;;;;;;9.87;8.60;;;14.40;56.40;;;;;;5010551;28;20318;-51
2023/04/18 05:22:00;;;;;;;11.97;10.23;;;14.40;56.30;;;;;;5010288;28;20198;-50
2023/04/18 05:24:25;;;;;;;11.63;10.47;;;14.30;56.50;;;;;;5008822;28;20213;-53
2023/04/18 05:26:51;;;;;;;10.70;9.60;;;14.30;56.70;;;;;;5004336;28;20198;-53
2023/04/18 05:29:17;;;;;;;11.07;9.77;;;14.40;56.80;;;;;;5002677;28;20646;-52
2023/04/18 05:31:42;;;;;;;12.47;9.73;;;14.40;57.40;;;;;;5007310;28;20448;-49
2023/04/18 05:34:08;;;;;;;10.90;9.80;;;14.50;57.30;;;;;;5004050;28;21606;-50
2023/04/18 05:36:34;;;;;;;11.37;10.17;;;14.50;57.20;;;;;;5005272;28;20277;-53
2023/04/18 05:38:59;;;;;;;13.40;11.67;;;14.40;56.90;;;;;;5004297;28;20193;-52
2023/04/18 05:41:25;;;;;;;14.03;11.50;;;14.40;56.80;;;;;;5002117;28;20271;-53
2023/04/18 05:43:50;;;;;;;12.70;10.40;;;14.50;56.90;;;;;;5004305;28;20263;-51
2023/04/18 05:46:16;;;;;;;11.67;10.47;;;14.50;56.40;;;;;;5003020;28;20198;-51
2023/04/18 05:48:41;;;;;;;11.20;9.77;;;14.60;56.20;;;;;;5004236;28;20650;-49
2023/04/18 05:51:07;;;;;;;12.30;10.30;;;14.70;56.20;;;;;;5007676;28;20226;-49
2023/04/18 05:53:32;;;;;;;12.83;10.27;;;14.80;56.20;;;;;;5007736;28;20260;-52
2023/04/18 05:55:58;;;;;;;10.87;9.73;;;14.80;56.00;;;;;;5005559;28;20576;-50
2023/04/18 05:58:24;;;;;;;11.73;10.53;;;14.80;56.10;;;;;;5002203;28;20236;-49
2023/04/18 06:00:52;;;;;;;12.33;10.50;;;15.00;55.90;;;;;;4998932;28;20198;-48
2023/04/18 06:03:17;;;;;;;12.70;11.30;;;14.90;55.50;;;;;;5008562;28;20226;-51
2023/04/18 06:05:43;;;;;;;12.63;11.30;;;14.80;55.50;;;;;;5010119;28;22092;-49
2023/04/18 06:08:08;;;;;;;11.90;10.70;;;14.90;55.70;;;;;;5004932;28;20209;-49
2023/04/18 06:10:34;;;;;;;10.87;9.60;;;14.90;55.90;;;;;;5007962;28;20225;-48
2023/04/18 06:13:00;;;;;;;12.13;10.83;;;14.80;55.60;;;;;;5001715;28;20203;-53
2023/04/18 06:15:25;;;;;;;11.10;9.97;;;14.80;55.50;;;;;;5004175;28;20194;-47
2023/04/18 06:17:51;;;;;;;11.33;10.20;;;15.00;55.70;;;;;;5011688;28;20201;-48
2023/04/18 06:20:16;;;;;;;11.70;10.50;;;15.00;55.60;;;;;;5009221;28;21394;-48
2023/04/18 06:22:42;;;;;;;12.03;10.40;;;15.00;55.40;;;;;;5004260;28;20234;-50
2023/04/18 06:25:08;;;;;;;12.97;10.60;;;15.00;55.50;;;;;;5004508;28;20257;-51
2023/04/18 06:27:35;;;;;;;10.77;9.77;;;15.00;55.60;;;;;;5006284;28;20293;-49
2023/04/18 06:30:01;;;;;;;11.30;10.20;;;15.00;55.40;;;;;;5007146;28;20460;-49
2023/04/18 06:32:27;;;;;;;10.70;9.60;;;15.00;55.40;;;;;;5005804;28;20824;-53
2023/04/18 06:34:52;;;;;;;10.87;9.80;;;15.00;55.50;;;;;;5011333;28;20205;-49
2023/04/18 06:37:18;;;;;;;13.17;10.60;;;15.00;55.40;;;;;;5009708;28;20237;-48
2023/04/18 06:39:43;;;;;;;12.53;10.67;;;15.10;55.60;;;;;;5008544;28;20990;-50
2023/04/18 06:42:09;;;;;;;15.03;11.10;;;15.10;55.70;;;;;;5010305;28;20245;-51
2023/04/18 06:44:35;;;;;;;11.87;10.37;;;15.20;55.40;;;;;;5008275;28;20289;-52
2023/04/18 06:47:01;;;;;;;11.30;10.00;;;15.10;54.90;;;;;;5006008;28;20194;-48
2023/04/18 06:49:27;;;;;;;9.90;8.90;;;15.00;54.80;;;;;;5005669;28;20841;-50
2023/04/18 06:51:52;;;;;;;12.10;9.97;;;14.90;55.20;;;;;;5007654;28;20582;-52
2023/04/18 06:54:18;;;;;;;10.77;9.57;;;14.90;55.40;;;;;;4996942;28;20276;-48
2023/04/18 06:56:44;;;;;;;11.97;9.37;;;14.90;55.60;;;;;;4997961;28;20885;-48
2023/04/18 06:59:09;;;;;;;11.13;9.97;;;14.90;55.60;;;;;;5003502;28;20189;-49
2023/04/18 07:01:42;;;;;;;10.53;9.47;;;14.80;56.00;;;;;;5002815;28;20222;-48
2023/04/18 07:04:08;;;;;;;11.07;9.97;;;14.90;56.30;;;;;;4996117;28;20630;-51
2023/04/18 07:06:35;;;;;;;13.30;10.50;;;14.90;56.20;;;;;;4992993;28;20449;-51
2023/04/18 07:09:01;;;;;;;11.03;9.33;;;14.90;55.70;;;;;;5000004;28;20544;-51
2023/04/18 07:11:27;;;;;;;10.70;9.60;;;15.00;56.00;;;;;;5004038;28;20540;-49
2023/04/18 07:13:52;;;;;;;11.33;10.13;;;15.00;55.90;;;;;;4996467;28;20559;-50
2023/04/18 07:16:18;;;;;;;10.20;9.20;;;15.10;55.90;;;;;;4991685;28;21940;-52
2023/04/18 07:18:44;;;;;;;12.70;10.80;;;14.90;56.00;;;;;;4996321;28;20201;-49
2023/04/18 07:21:09;;;;;;;14.17;11.73;;;15.00;56.00;;;;;;4993796;28;20456;-54
2023/04/18 07:23:35;;;;;;;14.17;12.33;;;14.90;55.80;;;;;;4994902;28;20230;-51
2023/04/18 07:26:01;;;;;;;12.50;11.20;;;14.90;55.90;;;;;;4998384;28;20189;-50
2023/04/18 07:28:28;;;;;;;13.90;11.53;;;14.90;56.30;;;;;;5002430;28;20313;-53
2023/04/18 07:30:55;;;;;;;12.30;11.00;;;15.00;56.00;;;;;;5005190;28;20432;-54
2023/04/18 07:33:22;;;;;;;12.33;10.90;;;15.00;55.70;;;;;;4998319;28;20808;-53
2023/04/18 07:35:50;;;;;;;12.17;10.50;;;15.00;55.90;;;;;;5004512;28;20500;-50
2023/04/18 07:38:16;;;;;;;12.43;10.53;;;15.10;55.80;;;;;;4998550;28;20484;-50
2023/04/18 07:40:43;;;;;;;11.90;10.30;;;15.20;55.90;;;;;;5002324;28;20838;-50
2023/04/18 07:43:09;;;;;;;12.40;9.80;;;15.20;55.50;;;;;;5004298;28;20229;-50
2023/04/18 07:45:37;;;;;;;11.30;10.13;;;14.90;56.00;;;;;;5001120;28;20453;-50
2023/04/18 07:48:03;;;;;;;11.83;10.67;;;14.80;56.30;;;;;;5004743;28;20201;-50
2023/04/18 07:50:28;;;;;;;14.13;11.33;;;14.80;56.60;;;;;;5005164;28;20842;-51
2023/04/18 07:52:54;;;;;;;12.63;10.87;;;14.90;56.70;;;;;;5005214;28;20502;-53
2023/04/18 07:55:20;;;;;;;12.30;11.00;;;15.10;56.20;;;;;;5003526;28;20657;-50
2023/04/18 07:57:49;;;;;;;14.83;10.03;;;15.00;56.00;;;;;;5011155;28;20240;-51
2023/04/18 08:00:16;;;;;;;11.93;10.70;;;15.10;56.10;;;;;;5000960;28;20198;-49
2023/04/18 08:02:42;;;;;;;13.50;10.47;;;15.20;56.00;;;;;;5002906;28;20897;-50
2023/04/18 08:05:08;;;;;;;11.27;10.03;;;15.20;56.30;;;;;;5005768;28;20449;-52
2023/04/18 08:07:35;;;;;;;13.83;11.63;;;15.50;56.20;;;;;;5005448;28;20793;-51
2023/04/18 08:10:00;;;;;;;12.50;11.27;;;15.70;55.60;;;;;;5003946;28;20548;-50
2023/04/18 08:12:26;;;;;;;13.73;10.83;;;15.90;55.40;;;;;;5000700;28;20539;-53
2023/04/18 08:14:51;;;;;;;13.43;11.30;;;15.80;55.10;;;;;;4994971;28;20206;-54
2023/04/18 08:17:17;;;;;;;12.50;10.57;;;15.80;55.50;;;;;;5001150;28;20193;-50
2023/04/18 08:19:44;;;;;;;12.20;10.13;;;15.80;55.30;;;;;;4998760;28;20656;-50
2023/04/18 08:22:10;;;;;;;17.37;10.87;;;16.00;55.00;;;;;;5000545;28;20689;-49
2023/04/18 08:24:39;;;;;;;14.30;11.27;;;16.20;54.90;;;;;;5010873;28;20449;-48
2023/04/18 08:27:05;;;;;;;13.60;11.10;;;16.40;54.60;;;;;;5005187;28;20456;-50
2023/04/18 08:29:31;;;;;;;11.77;10.53;;;16.40;54.20;;;;;;5006705;28;20450;-53
2023/04/18 08:31:56;;;;;;;11.67;10.07;;;16.50;53.80;;;;;;5008175;28;20203;-51
2023/04/18 08:34:22;;;;;;;15.03;11.10;;;16.50;53.60;;;;;;5000417;28;20477;-49
2023/04/18 08:36:49;;;;;;;11.47;10.30;;;16.50;54.30;;;;;;4997239;28;20201;-50
2023/04/18 08:39:15;;;;;;;12.33;10.70;;;16.80;54.10;;;;;;4995214;28;20198;-51
2023/04/18 08:41:42;;;;;;;12.80;11.50;;;16.80;53.90;;;;;;5002591;28;20794;-51
2023/04/18 08:44:07;;;;;;;11.70;10.60;;;16.80;53.50;;;;;;5003360;28;20264;-52
2023/04/18 08:46:34;;;;;;;13.40;11.67;;;16.80;53.40;;;;;;5002351;28;20477;-54
2023/04/18 08:49:03;;;;;;;13.10;11.70;;;16.90;53.70;;;;;;5004044;28;20190;-50
2023/04/18 08:51:31;;;;;;;12.87;10.97;;;16.80;54.40;;;;;;5001485;28;20489;-54
2023/04/18 08:54:03;;;;;;;13.60;11.87;;;16.90;53.80;;;;;;4995854;28;21233;-50
2023/04/18 08:56:31;;;;;;;13.63;12.20;;;16.70;53.20;;;;;;4993768;28;20465;-49
2023/04/18 08:58:59;;;;;;;12.40;11.10;;;16.50;53.80;;;;;;5001278;28;20532;-54
2023/04/18 09:01:56;;;;;;;14.27;12.80;;;16.50;54.00;;;;;;5000042;28;20452;-53
2023/04/18 09:04:39;;;;;;;12.13;10.80;;;16.60;53.80;;;;;;5005074;28;20457;-49
2023/04/18 09:07:10;;;;;;;12.80;11.43;;;16.50;53.60;;;;;;5002661;28;20461;-50
2023/04/18 09:09:42;;;;;;;12.43;11.30;;;16.20;53.70;;;;;;5006981;28;20452;-50
2023/04/18 09:12:10;;;;;;;12.00;10.80;;;16.30;54.20;;;;;;4997117;28;20781;-53
2023/04/18 09:14:36;;;;;;;12.60;11.30;;;16.30;54.00;;;;;;5006352;28;20484;-49
2023/04/18 09:17:02;;;;;;;16.70;12.70;;;16.20;54.10;;;;;;5003883;28;20453;-49
2023/04/18 09:19:29;;;;;;;15.33;12.17;;;16.30;54.40;;;;;;4997884;28;20488;-54
2023/04/18 09:22:00;;;;;;;12.30;11.10;;;16.30;54.60;;;;;;5001383;28;20450;-50
2023/04/18 09:24:27;;;;;;;14.60;11.40;;;16.40;54.30;;;;;;5007728;28;20507;-51
2023/04/18 09:26:55;;;;;;;13.50;11.37;;;16.30;54.60;;;;;;4998264;28;20472;-49
2023/04/18 09:29:29;;;;;;;11.97;10.63;;;16.20;54.00;;;;;;5011151;28;20558;-49
2023/04/18 09:32:00;;;;;;;11.97;10.87;;;16.10;54.50;;;;;;5007981;28;20483;-49
2023/04/18 09:34:27;;;;;;;11.33;10.13;;;16.00;54.50;;;;;;5001036;28;21508;-50
2023/04/18 09:37:12;;;;;;;11.63;10.53;;;16.20;54.60;;;;;;5000886;28;20491;-50
2023/04/18 09:39:41;;;;;;;13.77;12.43;;;16.30;54.10;;;;;;5007349;28;20934;-47
2023/04/18 09:42:07;;;;;;;12.37;10.70;;;16.30;53.90;;;;;;5005793;28;20856;-48
2023/04/18 09:44:33;;;;;;;12.67;10.87;;;16.50;54.00;;;;;;5009385;28;20590;-49
2023/04/18 09:46:59;;;;;;;11.50;10.30;;;16.40;53.30;;;;;;4998343;28;20244;-49
2023/04/18 09:49:26;;;;;;;11.93;10.70;;;16.10;54.00;;;;;;4998591;28;20198;-50
2023/04/18 09:51:53;;;;;;;12.23;10.83;;;15.80;54.30;;;;;;4998793;28;20976;-49
2023/04/18 09:54:22;;;;;;;13.20;10.20;;;15.90;54.60;;;;;;5006989;28;20597;-47
2023/04/18 09:56:50;;;;;;;12.63;10.80;;;16.00;54.50;;;;;;5010077;28;20449;-48
2023/04/18 09:59:32;;;;;;;11.40;10.20;;;16.20;54.30;;;;;;5007113;28;20783;-49
2023/04/18 10:02:00;;;;;;;10.50;9.40;;;16.30;54.40;;;;;;5003834;28;20960;-51
2023/04/18 10:04:27;;;;;;;11.53;10.27;;;16.30;53.90;;;;;;5008464;28;20475;-49
2023/04/18 10:06:53;;;;;;;11.50;10.30;;;16.50;54.10;;;;;;5007979;28;20459;-48
2023/04/18 10:09:20;;;;;;;10.73;9.67;;;16.50;53.80;;;;;;5007983;28;20438;-50
2023/04/18 10:11:46;;;;;;;10.97;9.90;;;16.40;54.10;;;;;;5000900;28;21718;-51
2023/04/18 10:14:14;;;;;;;10.30;9.23;;;16.60;53.70;;;;;;5010362;28;20444;-52
2023/04/18 10:16:44;;;;;;;11.63;9.10;;;16.40;53.90;;;;;;5000430;28;20198;-49
2023/04/18 10:19:27;;;;;;;10.47;9.10;;;16.40;53.80;;;;;;5008132;28;20441;-52
2023/04/18 10:21:55;;;;;;;11.30;9.53;;;16.50;54.00;;;;;;5009677;28;20883;-49
2023/04/18 10:24:52;;;;;;;12.03;9.40;;;16.60;53.50;;;;;;5003242;28;20465;-52
2023/04/18 10:27:46;;;;;;;9.87;8.30;;;16.40;53.50;;;;;;5000026;28;20959;-50
2023/04/18 10:30:17;;;;;;;11.07;8.23;;;16.70;53.60;;;;;;4998326;28;20978;-48
2023/04/18 10:32:44;;;;;;;10.37;9.23;;;16.90;52.90;;;;;;5006881;28;20602;-48
2023/04/18 10:35:10;;;;;;;8.90;8.10;;;16.90;53.40;;;;;;5008254;28;20468;-49
2023/04/18 10:37:51;;;;;;;12.10;8.30;;;17.20;52.80;;;;;;5007019;28;20520;-49
2023/04/18 10:40:31;;;;;;;9.63;7.77;;;17.20;52.50;;;;;;5007426;28;20224;-50
2023/04/18 10:42:57;;;;;;;9.17;8.20;;;17.10;52.60;;;;;;4991609;28;20851;-50
2023/04/18 10:45:24;;;;;;;8.80;7.93;;;17.20;52.90;;;;;;5001434;28;20449;-50
2023/04/18 10:48:23;;;;;;;9.17;8.27;;;17.20;52.40;;;;;;5010367;28;20689;-50
2023/04/18 10:51:21;;;;;;;7.90;7.20;;;17.10;52.80;;;;;;4997406;28;20461;-53
2023/04/18 10:53:56;;;;;;;9.53;7.40;;;17.20;52.00;;;;;;4963306;28;20599;-52
2023/04/18 10:56:22;;;;;;;7.80;7.10;;;17.30;52.60;;;;;;5009035;28;20436;-53
2023/04/18 10:58:50;;;;;;;7.67;6.87;;;17.20;52.20;;;;;;5009495;28;20442;-51
2023/04/18 11:01:25;;;;;;;8.40;6.80;;;17.30;52.10;;;;;;5005975;28;20445;-51
2023/04/18 11:03:52;;;;;;;8.13;7.33;;;17.00;52.30;;;;;;5009961;28;21002;-48
2023/04/18 11:06:17;;;;;;;7.30;6.53;;;16.70;53.20;;;;;;5005772;28;20448;-49
2023/04/18 11:08:43;;;;;;;7.40;6.70;;;16.90;53.30;;;;;;5005441;28;20444;-49
2023/04/18 11:11:10;;;;;;;7.53;6.80;;;17.30;53.20;;;;;;5001511;28;20236;-50
2023/04/18 11:13:36;;;;;;;6.90;6.20;;;17.40;52.30;;;;;;5002310;28;20201;-49
2023/04/18 11:16:02;;;;;;;7.30;6.60;;;17.50;52.90;;;;;;5008827;28;20444;-49
2023/04/18 11:18:41;;;;;;;8.50;7.37;;;17.40;52.10;;;;;;5001873;28;20449;-48
2023/04/18 11:21:07;;;;;;;7.50;6.80;;;17.50;52.60;;;;;;5004710;28;20441;-49
2023/04/18 11:23:33;;;;;;;7.17;6.47;;;17.40;52.30;;;;;;5008923;28;20971;-49
2023/04/18 11:25:58;;;;;;;7.50;6.73;;;17.40;52.30;;;;;;5005507;28;20278;-48
2023/04/18 11:28:24;;;;;;;7.27;6.57;;;17.20;52.50;;;;;;5004516;28;20217;-48
2023/04/18 11:30:50;;;;;;;6.63;6.03;;;17.20;52.60;;;;;;5003381;28;20567;-49
2023/04/18 11:33:15;;;;;;;8.63;6.50;;;17.40;52.90;;;;;;5002873;28;20290;-48
2023/04/18 11:35:43;;;;;;;7.00;6.37;;;17.60;52.70;;;;;;4995237;28;20205;-49
2023/04/18 11:38:11;;;;;;;6.63;6.03;;;17.70;52.20;;;;;;4995275;28;20186;-48
2023/04/18 11:40:37;;;;;;;8.00;7.20;;;17.70;51.90;;;;;;5006348;28;20504;-49
2023/04/18 11:43:05;;;;;;;9.50;6.80;;;17.80;52.60;;;;;;5004695;28;20472;-48
2023/04/18 11:45:32;;;;;;;7.33;6.73;;;18.00;52.60;;;;;;5005548;28;20794;-48
2023/04/18 11:47:59;;;;;;;7.40;6.50;;;18.00;51.80;;;;;;4999353;28;20543;-51
2023/04/18 11:50:25;;;;;;;6.87;6.17;;;17.70;51.30;;;;;;4997599;28;20543;-48
2023/04/18 11:52:52;;;;;;;14.33;6.80;;;17.50;51.60;;;;;;5002713;28;20547;-49
2023/04/18 11:55:23;;;;;;;9.57;6.03;;;17.30;52.10;;;;;;5006777;28;20447;-48
2023/04/18 11:57:50;;;;;;;6.97;6.27;;;17.30;52.20;;;;;;5003647;28;20470;-50
2023/04/18 12:00:20;;;;;;;6.07;5.47;;;17.40;52.40;;;;;;5008936;28;20441;-51
2023/04/18 12:02:48;;;;;;;6.57;5.90;;;17.40;52.20;;;;;;5004301;28;20508;-53
2023/04/18 12:05:34;;;;;;;7.30;6.60;;;17.20;52.30;;;;;;5004984;28;20865;-52
2023/04/18 12:08:10;;;;;;;6.43;5.93;;;17.60;52.10;;;;;;4994461;28;20909;-53
2023/04/18 12:10:37;;;;;;;6.93;6.30;;;18.10;51.50;;;;;;4994507;28;20448;-53
2023/04/18 12:13:07;;;;;;;6.50;5.77;;;18.10;50.60;;;;;;4999731;28;20507;-51
2023/04/18 12:15:33;;;;;;;6.03;5.23;;;17.90;51.00;;;;;;5005747;28;20440;-53
2023/04/18 12:18:01;;;;;;;6.83;5.33;;;18.00;50.90;;;;;;4996219;28;20450;-51
2023/04/18 12:20:45;;;;;;;5.20;4.70;;;18.20;51.20;;;;;;4998286;28;20445;-53
2023/04/18 12:23:29;;;;;;;5.93;5.30;;;18.00;50.40;;;;;;5006056;28;20480;-50
2023/04/18 12:26:02;;;;;;;7.10;5.23;;;17.90;50.80;;;;;;5008942;28;20631;-50
2023/04/18 12:28:29;;;;;;;6.23;5.70;;;18.20;50.60;;;;;;5008770;28;20441;-50
2023/04/18 12:30:55;;;;;;;5.40;4.70;;;18.10;49.80;;;;;;5010293;28;20938;-51
2023/04/18 12:33:20;;;;;;;5.67;4.97;;;18.40;50.20;;;;;;5013770;28;20440;-49